createdAt,value
2022-08-16T00:01:24.555Z,78.20
2022-08-16T00:03:52.495Z,78.11
2022-08-16T00:06:19.854Z,77.76
2022-08-16T00:08:47.806Z,77.57
2022-08-16T00:11:16.599Z,77.47
2022-08-16T00:13:54.366Z,77.43
2022-08-16T00:17:05.423Z,77.61
2022-08-16T00:19:19.550Z,77.46
2022-08-16T00:21:53.187Z,77.61
2022-08-16T00:24:32.492Z,77.49
2022-08-16T00:26:59.942Z,77.23
2022-08-16T00:29:30.003Z,77.16
2022-08-16T00:32:00.955Z,76.79
2022-08-16T00:34:44.812Z,76.81
2022-08-16T00:37:20.910Z,76.64
2022-08-16T00:39:57.502Z,76.74
2022-08-16T00:42:30.528Z,76.51
2022-08-16T00:45:29.288Z,76.08
2022-08-16T00:48:28.834Z,76.32
2022-08-16T00:50:55.500Z,76.12
2022-08-16T00:53:22.369Z,76.51
2022-08-16T00:55:55.234Z,76.50
2022-08-16T00:58:34.756Z,76.38
2022-08-16T01:01:02.688Z,76.21
2022-08-16T01:03:31.681Z,76.28
2022-08-16T01:06:40.125Z,76.21
2022-08-16T01:08:53.652Z,76.48
2022-08-16T01:11:22.337Z,76.72
2022-08-16T01:13:53.193Z,77.23
2022-08-16T01:16:25.817Z,77.87
2022-08-16T01:19:07.530Z,78.20
2022-08-16T01:21:52.290Z,78.33
2022-08-16T01:24:51.665Z,78.15
2022-08-16T01:27:22.344Z,78.32
2022-08-16T01:30:19.941Z,77.97
2022-08-16T01:33:01.580Z,77.56
2022-08-16T01:35:39.677Z,77.22
2022-08-16T01:38:19.986Z,76.92
2022-08-16T01:40:55.018Z,76.73
2022-08-16T01:43:24.532Z,76.67
2022-08-16T01:45:57.698Z,76.62
2022-08-16T01:48:29.418Z,76.45
2022-08-16T01:51:08.509Z,76.35
2022-08-16T01:53:37.971Z,76.34
2022-08-16T01:56:25.422Z,76.33
2022-08-16T01:58:55.371Z,76.39
2022-08-16T02:01:23.353Z,76.86
2022-08-16T02:03:53.237Z,76.54
2022-08-16T02:06:34.659Z,76.77
2022-08-16T02:09:07.239Z,76.81
2022-08-16T02:11:47.847Z,76.63
2022-08-16T02:14:26.251Z,76.63
2022-08-16T02:17:01.702Z,76.32
2022-08-16T02:19:59.729Z,76.12
2022-08-16T02:22:34.356Z,76.06
2022-08-16T02:25:07.211Z,76.10
2022-08-16T02:27:36.496Z,76.17
2022-08-16T02:30:05.894Z,76.07
2022-08-16T02:32:50.735Z,76.05
2022-08-16T02:35:22.904Z,75.96
2022-08-16T02:37:52.701Z,75.98
2022-08-16T02:40:24.669Z,75.80
2022-08-16T02:42:54.333Z,75.96
2022-08-16T02:45:28.021Z,75.84
2022-08-16T02:48:00.361Z,75.93
2022-08-16T02:50:54.573Z,75.80
2022-08-16T02:53:31.046Z,76.04
2022-08-16T02:55:59.132Z,76.33
2022-08-16T02:58:28.256Z,76.66
2022-08-16T03:00:57.835Z,77.16
2022-08-16T03:04:29.214Z,77.41
2022-08-16T03:06:41.543Z,77.65
2022-08-16T03:09:16.430Z,77.70
2022-08-16T03:11:47.847Z,77.41
2022-08-16T03:14:21.082Z,77.58
2022-08-16T03:16:58.694Z,77.43
2022-08-16T03:19:56.516Z,77.48
2022-08-16T03:22:29.096Z,77.89
2022-08-16T03:25:09.055Z,78.04
2022-08-16T03:27:39.209Z,78.36
2022-08-16T03:30:17.320Z,78.56
2022-08-16T03:32:58.413Z,78.31
2022-08-16T03:35:32.695Z,78.67
2022-08-16T03:38:33.052Z,78.79
2022-08-16T03:40:57.728Z,78.51
2022-08-16T03:43:50.982Z,78.88
2022-08-16T03:46:48.162Z,78.77
2022-08-16T03:49:04.828Z,78.52
2022-08-16T03:51:31.418Z,78.78
2022-08-16T03:54:04.147Z,78.77
2022-08-16T03:56:58.040Z,78.62
2022-08-16T03:59:30.094Z,78.40
2022-08-16T04:02:00.987Z,78.25
2022-08-16T04:04:33.504Z,78.09
2022-08-16T04:07:04.293Z,77.87
2022-08-16T04:09:38.215Z,77.83
2022-08-16T04:12:11.320Z,78.05
2022-08-16T04:14:54.416Z,78.34
2022-08-16T04:17:21.669Z,78.48
2022-08-16T04:19:51.700Z,78.68
2022-08-16T04:22:27.674Z,78.56
2022-08-16T04:24:59.750Z,78.54
2022-08-16T04:27:33.108Z,78.81
2022-08-16T04:30:02.802Z,78.58
2022-08-16T04:32:31.775Z,78.57
2022-08-16T04:34:59.512Z,78.54
2022-08-16T04:37:29.128Z,78.50
2022-08-16T04:40:10.781Z,78.37
2022-08-16T04:42:50.466Z,78.75
2022-08-16T04:45:18.360Z,78.66
2022-08-16T04:48:05.874Z,78.47
2022-08-16T04:50:43.474Z,78.46
2022-08-16T04:53:15.867Z,78.58
2022-08-16T04:55:44.971Z,78.51
2022-08-16T04:58:45.225Z,78.45
2022-08-16T05:01:01.422Z,78.27
2022-08-16T05:03:30.982Z,78.24
2022-08-16T05:05:59.825Z,78.00
2022-08-16T05:08:34.157Z,78.03
2022-08-16T05:11:16.781Z,77.96
2022-08-16T05:13:47.539Z,78.01
2022-08-16T05:16:27.108Z,78.26
2022-08-16T05:19:05.029Z,78.34
2022-08-16T05:21:46.405Z,78.49
2022-08-16T05:24:13.347Z,78.78
2022-08-16T05:26:40.880Z,78.68
2022-08-16T05:29:15.167Z,78.75
2022-08-16T05:31:54.082Z,78.66
2022-08-16T05:34:22.321Z,78.87
2022-08-16T05:36:53.012Z,78.91
2022-08-16T05:39:23.763Z,78.84
2022-08-16T05:41:53.130Z,79.20
2022-08-16T05:44:23.958Z,79.18
2022-08-16T05:46:59.963Z,79.57
2022-08-16T05:49:39.403Z,79.56
2022-08-16T05:52:10.872Z,79.53
2022-08-16T05:54:46.027Z,79.32
2022-08-16T05:57:15.662Z,79.43
2022-08-16T05:59:42.512Z,79.52
2022-08-16T06:02:09.938Z,79.51
2022-08-16T06:04:37.925Z,79.32
2022-08-16T06:07:26.695Z,79.02
2022-08-16T06:10:05.100Z,78.49
2022-08-16T06:12:34.737Z,77.99
2022-08-16T06:15:09.947Z,77.78
2022-08-16T06:17:43.268Z,77.57
2022-08-16T06:20:24.219Z,77.10
2022-08-16T06:22:57.751Z,77.11
2022-08-16T06:25:36.771Z,77.28
2022-08-16T06:28:09.489Z,77.24
2022-08-16T06:30:44.063Z,76.87
2022-08-16T06:33:19.650Z,76.55
2022-08-16T06:35:55.033Z,76.16
2022-08-16T06:38:33.696Z,76.00
2022-08-16T06:41:12.324Z,75.76
2022-08-16T06:43:41.684Z,75.33
2022-08-16T06:46:31.698Z,74.94
2022-08-16T06:49:05.496Z,74.78
2022-08-16T06:51:46.626Z,74.62
2022-08-16T06:54:18.926Z,74.15
2022-08-16T06:56:45.805Z,73.67
2022-08-16T06:59:14.520Z,73.41
2022-08-16T07:01:54.085Z,73.05
2022-08-16T07:04:31.786Z,72.29
2022-08-16T07:07:03.030Z,72.29
2022-08-16T07:09:30.795Z,72.03
2022-08-16T07:12:03.238Z,71.72
2022-08-16T07:14:33.770Z,71.50
2022-08-16T07:17:03.578Z,71.40
2022-08-16T07:20:02.747Z,71.80
2022-08-16T07:22:37.425Z,72.08
2022-08-16T07:25:13.858Z,72.53
2022-08-16T07:27:41.444Z,72.65
2022-08-16T07:30:38.394Z,72.39
2022-08-16T07:33:04.551Z,71.98
2022-08-16T07:35:34.298Z,72.02
2022-08-16T07:38:01.181Z,72.03
2022-08-16T07:41:00.780Z,71.80
2022-08-16T07:43:29.751Z,71.31
2022-08-16T07:46:01.570Z,71.36
2022-08-16T07:48:31.206Z,71.71
2022-08-16T07:51:00.318Z,71.57
2022-08-16T07:53:30.816Z,71.29
2022-08-16T07:56:00.559Z,71.45
2022-08-16T07:58:36.198Z,70.60
2022-08-16T08:01:10.318Z,69.74
2022-08-16T08:03:48.217Z,69.37
2022-08-16T08:06:19.670Z,68.72
2022-08-16T08:08:50.541Z,68.19
2022-08-16T08:11:21.528Z,68.05
2022-08-16T08:13:50.579Z,67.74
2022-08-16T08:16:19.945Z,67.00
2022-08-16T08:18:49.988Z,66.50
2022-08-16T08:21:27.330Z,66.43
2022-08-16T08:23:57.720Z,66.49
2022-08-16T08:26:25.267Z,66.29
2022-08-16T08:28:52.647Z,65.71
2022-08-16T08:31:21.410Z,65.29
2022-08-16T08:33:51.492Z,65.16
2022-08-16T08:36:33.592Z,65.09
2022-08-16T08:39:12.509Z,64.57
2022-08-16T08:41:42.542Z,63.00
2022-08-16T08:44:29.854Z,63.10
2022-08-16T08:47:09.254Z,62.66
2022-08-16T08:49:45.972Z,61.85
2022-08-16T08:52:34.996Z,60.36
2022-08-16T08:55:11.003Z,59.33
2022-08-16T08:57:45.638Z,59.01
2022-08-16T09:00:26.873Z,59.27
2022-08-16T09:02:58.612Z,59.07
2022-08-16T09:05:35.837Z,58.84
2022-08-16T09:08:05.971Z,57.36
2022-08-16T09:11:07.378Z,57.13
2022-08-16T09:13:36.025Z,55.40
2022-08-16T09:16:03.360Z,52.94
2022-08-16T09:18:35.416Z,52.62
2022-08-16T09:21:07.138Z,52.25
2022-08-16T09:23:37.561Z,51.21
2022-08-16T09:26:44.844Z,51.08
2022-08-16T09:29:16.242Z,50.25
2022-08-16T09:31:42.068Z,49.87
2022-08-16T09:34:10.451Z,50.19
2022-08-16T09:36:37.519Z,50.31
2022-08-16T09:39:16.270Z,50.95
2022-08-16T09:41:53.183Z,50.62
2022-08-16T09:45:12.314Z,51.01
2022-08-16T09:47:11.038Z,51.02
2022-08-16T09:49:41.006Z,51.40
2022-08-16T09:52:10.051Z,51.17
2022-08-16T09:54:37.967Z,51.82
2022-08-16T09:57:05.010Z,51.56
2022-08-16T09:59:38.607Z,51.31
2022-08-16T10:02:27.178Z,50.72
2022-08-16T10:04:57.298Z,51.50
2022-08-16T10:07:38.362Z,50.08
2022-08-16T10:10:19.203Z,48.71
2022-08-16T10:13:12.312Z,48.30
2022-08-16T10:15:43.746Z,48.13
2022-08-16T10:19:00.304Z,47.93
2022-08-16T10:21:09.469Z,48.34
2022-08-16T10:23:36.683Z,47.72
2022-08-16T10:27:20.626Z,48.48
2022-08-16T10:28:51.880Z,48.96
2022-08-16T10:31:44.317Z,49.04
2022-08-16T10:34:05.790Z,49.08
2022-08-16T10:36:54.199Z,48.33
2022-08-16T10:39:21.218Z,47.55
2022-08-16T10:41:48.019Z,46.02
2022-08-16T10:44:15.172Z,45.59
2022-08-16T10:46:44.327Z,45.95
2022-08-16T10:49:16.832Z,46.26
2022-08-16T10:52:01.405Z,46.52
2022-08-16T10:54:31.005Z,46.05
2022-08-16T10:57:00.543Z,45.45
2022-08-16T10:59:39.147Z,46.04
2022-08-16T11:02:57.653Z,45.96
2022-08-16T11:05:06.771Z,46.52
2022-08-16T11:07:42.975Z,47.15
2022-08-16T11:10:20.411Z,47.28
2022-08-16T11:12:47.779Z,47.32
2022-08-16T11:15:20.318Z,46.24
2022-08-16T11:18:36.654Z,44.79
2022-08-16T11:20:41.235Z,42.89
2022-08-16T11:23:09.907Z,41.98
2022-08-16T11:31:11.106Z,42.22
2022-08-16T11:33:55.625Z,41.45
2022-08-16T11:36:27.966Z,42.42
2022-08-16T11:39:00.165Z,42.85
2022-08-16T11:41:30.813Z,43.33
2022-08-16T11:43:59.590Z,43.65
2022-08-16T11:46:43.415Z,42.29
2022-08-16T11:49:14.121Z,42.16
2022-08-16T11:51:44.091Z,42.33
2022-08-16T11:54:20.755Z,42.97
2022-08-16T11:56:52.647Z,42.86
2022-08-16T11:59:28.468Z,43.13
2022-08-16T12:01:59.910Z,42.10
2022-08-16T12:04:31.700Z,41.63
2022-08-16T12:06:58.774Z,40.46
2022-08-16T12:09:29.512Z,38.91
2022-08-16T12:11:58.494Z,38.07
2022-08-16T12:14:35.297Z,38.12
2022-08-16T12:17:03.578Z,38.96
2022-08-16T12:19:35.462Z,39.41
2022-08-16T12:22:05.618Z,39.99
2022-08-16T12:24:45.378Z,40.27
2022-08-16T12:27:14.602Z,40.11
2022-08-16T12:29:42.004Z,40.42
2022-08-16T12:32:35.748Z,40.61
2022-08-16T12:34:55.370Z,40.36
2022-08-16T12:37:24.343Z,40.55
2022-08-16T12:39:58.429Z,40.28
2022-08-16T12:42:35.481Z,39.84
2022-08-16T12:45:06.540Z,39.27
2022-08-16T12:47:53.244Z,38.92
2022-08-16T12:50:33.006Z,37.70
2022-08-16T12:53:00.503Z,37.89
2022-08-16T12:55:33.678Z,36.96
2022-08-16T12:58:13.537Z,36.59
2022-08-16T13:00:42.181Z,35.72
2022-08-16T13:03:09.588Z,34.63
2022-08-16T13:05:45.143Z,34.52
2022-08-16T13:08:30.840Z,34.75
2022-08-16T13:11:00.665Z,34.57
2022-08-16T13:13:29.557Z,34.04
2022-08-16T13:16:03.651Z,34.70
2022-08-16T13:18:34.217Z,34.14
2022-08-16T13:21:07.738Z,33.82
2022-08-16T13:23:36.818Z,33.77
2022-08-16T13:26:10.778Z,34.49
2022-08-16T13:28:37.387Z,35.84
2022-08-16T13:31:04.399Z,35.93
2022-08-16T13:33:37.067Z,36.12
2022-08-16T13:36:07.276Z,36.14
2022-08-16T13:38:49.353Z,36.44
2022-08-16T13:41:16.079Z,37.13
2022-08-16T13:43:43.033Z,37.41
2022-08-16T13:46:09.683Z,37.75
2022-08-16T13:48:44.428Z,38.24
2022-08-16T13:51:16.715Z,38.39
2022-08-16T13:53:54.224Z,38.25
2022-08-16T13:56:25.779Z,36.79
2022-08-16T13:58:54.735Z,36.35
2022-08-16T14:01:22.573Z,36.94
2022-08-16T14:03:50.392Z,36.68
2022-08-16T14:06:21.675Z,35.84
2022-08-16T14:08:58.841Z,34.47
2022-08-16T14:11:33.515Z,34.59
2022-08-16T14:14:00.444Z,34.52
2022-08-16T14:16:34.089Z,34.94
2022-08-16T14:19:02.134Z,34.30
2022-08-16T14:21:34.988Z,33.83
2022-08-16T14:24:07.902Z,33.46
2022-08-16T14:26:43.863Z,32.89
2022-08-16T14:29:11.137Z,32.97
2022-08-16T14:31:39.671Z,32.48
2022-08-16T14:34:07.774Z,32.13
2022-08-16T14:36:37.897Z,32.54
2022-08-16T14:39:09.075Z,32.05
2022-08-16T14:41:36.642Z,32.44
2022-08-16T14:44:07.040Z,32.10
2022-08-16T14:46:33.747Z,31.96
2022-08-16T14:49:01.631Z,30.77
2022-08-16T14:51:28.854Z,30.53
2022-08-16T14:53:56.833Z,29.78
2022-08-16T14:56:38.654Z,29.27
2022-08-16T14:59:11.058Z,29.84
2022-08-16T15:01:52.149Z,30.27
2022-08-16T15:04:39.832Z,30.03
2022-08-16T15:07:13.976Z,29.91
2022-08-16T15:10:00.993Z,30.06
2022-08-16T15:12:33.282Z,29.62
2022-08-16T15:15:04.535Z,30.22
2022-08-16T15:17:40.324Z,29.75
2022-08-16T15:20:08.605Z,29.30
2022-08-16T15:22:39.355Z,29.51
2022-08-16T15:25:11.069Z,29.12
2022-08-16T15:27:42.070Z,29.05
2022-08-16T15:30:56.739Z,28.77
2022-08-16T15:33:10.036Z,28.36
2022-08-16T15:35:38.609Z,28.89
2022-08-16T15:38:09.101Z,28.86
2022-08-16T15:40:57.897Z,29.17
2022-08-16T15:43:33.968Z,28.85
2022-08-16T15:46:35.768Z,29.67
2022-08-16T15:49:12.704Z,29.04
2022-08-16T15:51:41.345Z,29.74
2022-08-16T15:54:28.961Z,29.66
2022-08-16T15:56:56.367Z,29.31
2022-08-16T15:59:27.096Z,29.83
2022-08-16T16:01:55.973Z,29.97
2022-08-16T16:04:25.788Z,29.11
2022-08-16T16:06:55.347Z,29.23
2022-08-16T16:09:34.608Z,29.26
2022-08-16T16:12:34.075Z,29.46
2022-08-16T16:14:53.019Z,30.13
2022-08-16T16:17:19.645Z,30.40
2022-08-16T16:19:49.765Z,29.63
2022-08-16T16:22:21.154Z,29.28
2022-08-16T16:24:49.214Z,29.30
2022-08-16T16:27:16.637Z,29.60
2022-08-16T16:29:46.426Z,29.65
2022-08-16T16:32:33.226Z,30.34
2022-08-16T16:35:01.181Z,29.67
2022-08-16T16:37:27.831Z,30.00
2022-08-16T16:39:54.656Z,30.70
2022-08-16T16:42:29.330Z,30.57
2022-08-16T16:45:01.612Z,30.65
2022-08-16T16:47:41.444Z,29.80
2022-08-16T16:50:10.242Z,30.67
2022-08-16T16:52:44.265Z,30.67
2022-08-16T16:55:12.864Z,31.19
2022-08-16T16:57:58.261Z,31.60
2022-08-16T17:00:29.760Z,31.33
2022-08-16T17:03:05.670Z,31.25
2022-08-16T17:05:32.777Z,31.75
2022-08-16T17:08:01.889Z,31.66
2022-08-16T17:10:46.434Z,31.74
2022-08-16T17:13:15.366Z,31.50
2022-08-16T17:15:42.044Z,31.87
2022-08-16T17:19:15.349Z,31.91
2022-08-16T17:20:55.569Z,32.51
2022-08-16T17:23:23.279Z,32.78
2022-08-16T17:26:10.697Z,32.51
2022-08-16T17:28:58.503Z,32.76
2022-08-16T17:31:34.745Z,32.87
2022-08-16T17:34:28.843Z,33.10
2022-08-16T17:36:54.362Z,33.31
2022-08-16T17:39:21.222Z,33.64
2022-08-16T17:41:50.821Z,33.86
2022-08-16T17:44:19.276Z,33.87
2022-08-16T17:46:52.272Z,33.26
2022-08-16T17:49:19.692Z,33.40
2022-08-16T17:51:46.317Z,33.51
2022-08-16T17:54:22.130Z,33.86
2022-08-16T17:57:00.752Z,34.61
2022-08-16T17:59:28.938Z,35.43
2022-08-16T18:01:56.194Z,35.73
2022-08-16T18:04:45.251Z,36.41
2022-08-16T18:07:10.813Z,36.79
2022-08-16T18:09:40.833Z,37.02
2022-08-16T18:12:23.976Z,37.58
2022-08-16T18:15:04.490Z,38.09
2022-08-16T18:17:31.987Z,38.50
2022-08-16T18:19:58.603Z,38.40
2022-08-16T18:22:30.660Z,39.03
2022-08-16T18:24:58.037Z,39.12
2022-08-16T18:27:26.786Z,39.47
2022-08-16T18:29:53.906Z,39.92
2022-08-16T18:32:24.548Z,40.41
2022-08-16T18:34:54.449Z,41.00
2022-08-16T18:37:24.798Z,40.66
2022-08-16T18:39:51.537Z,41.13
2022-08-16T18:42:18.343Z,41.40
2022-08-16T18:44:44.983Z,42.29
2022-08-16T18:47:11.804Z,42.24
2022-08-16T18:49:38.839Z,42.43
2022-08-16T18:52:05.909Z,43.06
2022-08-16T18:54:33.906Z,43.54
2022-08-16T18:57:20.475Z,43.93
2022-08-16T18:59:47.095Z,43.68
2022-08-16T19:02:57.891Z,44.34
2022-08-16T19:05:15.174Z,44.30
2022-08-16T19:07:41.865Z,44.42
2022-08-16T19:10:09.318Z,45.03
2022-08-16T19:12:38.071Z,45.57
2022-08-16T19:15:24.083Z,45.84
2022-08-16T19:17:50.634Z,46.30
2022-08-16T19:20:20.685Z,46.62
2022-08-16T19:23:05.071Z,47.16
2022-08-16T19:25:47.925Z,47.79
2022-08-16T19:28:50.732Z,47.73
2022-08-16T19:31:14.958Z,48.44
2022-08-16T19:33:53.172Z,48.87
2022-08-16T19:36:31.245Z,49.23
2022-08-16T19:39:04.945Z,49.35
2022-08-16T19:41:34.172Z,49.62
2022-08-16T19:44:00.772Z,49.35
2022-08-16T19:46:27.480Z,49.67
2022-08-16T19:48:54.100Z,49.85
2022-08-16T19:51:20.694Z,49.65
2022-08-16T19:53:47.351Z,49.80
2022-08-16T19:56:13.971Z,49.42
2022-08-16T19:58:56.187Z,49.10
2022-08-16T20:01:27.148Z,49.10
2022-08-16T20:03:53.756Z,49.38
2022-08-16T20:06:37.594Z,49.67
2022-08-16T20:09:06.090Z,49.86
2022-08-16T20:11:33.063Z,50.08
2022-08-16T20:13:59.673Z,50.11
2022-08-16T20:16:26.384Z,50.26
2022-08-16T20:18:53.037Z,50.28
2022-08-16T20:21:19.779Z,50.71
2022-08-16T20:23:46.648Z,50.93
2022-08-16T20:26:13.326Z,50.83
2022-08-16T20:28:53.492Z,50.82
2022-08-16T20:31:21.254Z,50.94
2022-08-16T20:33:47.921Z,50.90
2022-08-16T20:36:16.037Z,50.91
2022-08-16T20:38:47.020Z,50.96
2022-08-16T20:41:14.732Z,51.10
2022-08-16T20:43:41.354Z,51.21
2022-08-16T20:46:07.991Z,51.50
2022-08-16T20:48:34.635Z,51.79
2022-08-16T20:51:01.291Z,51.86
2022-08-16T20:53:27.953Z,52.01
2022-08-16T20:55:54.608Z,52.33
2022-08-16T20:58:21.192Z,52.39
2022-08-16T21:00:48.012Z,52.64
2022-08-16T21:03:14.823Z,53.12
2022-08-16T21:05:42.023Z,53.65
2022-08-16T21:08:52.714Z,54.44
2022-08-16T21:10:59.282Z,55.41
2022-08-16T21:13:26.060Z,56.00
2022-08-16T21:15:53.063Z,56.53
2022-08-16T21:18:19.685Z,56.68
2022-08-16T21:20:46.434Z,56.80
2022-08-16T21:23:13.126Z,56.68
2022-08-16T21:25:58.332Z,57.07
2022-08-16T21:28:39.907Z,57.43
2022-08-16T21:31:13.112Z,57.29
2022-08-16T21:33:40.267Z,57.70
2022-08-16T21:36:07.148Z,57.83
2022-08-16T21:38:33.736Z,57.91
2022-08-16T21:41:01.751Z,58.00
2022-08-16T21:43:32.138Z,58.10
2022-08-16T21:46:03.592Z,58.11
2022-08-16T21:48:34.451Z,58.30
2022-08-16T21:51:08.838Z,58.61
2022-08-16T21:53:37.809Z,58.73
2022-08-16T21:56:05.318Z,59.14
2022-08-16T21:58:32.369Z,59.47
2022-08-16T22:00:59.673Z,59.71
2022-08-16T22:03:26.328Z,60.09
2022-08-16T22:06:11.758Z,60.08
2022-08-16T22:08:49.082Z,60.13
2022-08-16T22:11:20.510Z,60.28
2022-08-16T22:13:52.799Z,60.42
2022-08-16T22:16:29.943Z,60.49
2022-08-16T22:18:56.693Z,60.36
2022-08-16T22:21:23.389Z,59.91
2022-08-16T22:23:57.199Z,60.41
2022-08-16T22:26:31.869Z,60.32
2022-08-16T22:29:00.831Z,60.73
2022-08-16T22:31:27.802Z,60.67
2022-08-16T22:33:54.934Z,60.48
2022-08-16T22:36:21.542Z,60.21
2022-08-16T22:38:55.896Z,60.17
2022-08-16T22:41:24.239Z,59.82
2022-08-16T22:43:50.851Z,59.84
2022-08-16T22:46:18.700Z,59.45
2022-08-16T22:48:45.782Z,59.24
2022-08-16T22:51:12.412Z,59.04
2022-08-16T22:53:39.067Z,58.68
2022-08-16T22:56:05.882Z,58.58
2022-08-16T22:58:36.708Z,58.18
2022-08-16T23:01:06.442Z,57.54
2022-08-16T23:03:33.383Z,57.16
2022-08-16T23:06:02.891Z,57.00
2022-08-16T23:08:38.555Z,56.70
2022-08-16T23:11:13.294Z,56.81
2022-08-16T23:13:53.034Z,57.23
2022-08-16T23:16:33.810Z,57.28
2022-08-16T23:19:09.822Z,57.69
2022-08-16T23:21:39.050Z,57.82
2022-08-16T23:24:07.274Z,58.24
2022-08-16T23:26:43.883Z,58.73
2022-08-16T23:29:24.085Z,59.05
2022-08-16T23:31:56.276Z,59.81
2022-08-16T23:34:23.873Z,60.26
2022-08-16T23:36:50.526Z,60.89
2022-08-16T23:39:17.154Z,61.25
2022-08-16T23:41:44.502Z,61.71
2022-08-16T23:44:55.408Z,62.11
2022-08-16T23:46:57.719Z,62.31
2022-08-16T23:49:57.261Z,62.75
2022-08-16T23:52:11.220Z,63.17
2022-08-16T23:54:37.836Z,63.26
2022-08-16T23:57:05.040Z,63.82
2022-08-16T23:59:36.727Z,63.59
